Time;durP1;ratioP1;P1;durP2;ratioP2;P2;SDS_P1;SDS_P2;PMS_P1;PMS_P2;Temp;Humidity;BMP_temperature;BMP_pressure;BME280_temperature;BME280_humidity;BME280_pressure;Samples;Min_cycle;Max_cycle;Signal;HPM_P1;HPM_P2
2022/09/18 00:01:26;;;;;;;10.63;7.05;;;;;;;22.07;57.91;93670.63;4979890;28;20113;-59
2022/09/18 00:03:56;;;;;;;11.98;7.00;;;;;;;22.50;57.61;93717.72;4968710;28;20476;-71
2022/09/18 00:06:22;;;;;;;;;;;;;;;22.69;56.89;93712.75;4971835;28;20474;-70
2022/09/18 00:08:55;;;;;;;11.55;5.55;;;;;;;22.75;56.08;93726.94;4993253;28;19914;-67
2022/09/18 00:11:21;;;;;;;5.13;2.88;;;;;;;22.77;56.01;93735.31;4981742;28;20411;-70
2022/09/18 00:13:47;;;;;;;6.57;2.40;;;;;;;22.35;56.72;93744.09;4966246;28;20545;-69
2022/09/18 00:16:13;;;;;;;4.82;2.50;;;;;;;22.65;55.83;93756.63;4989194;28;20045;-67
2022/09/18 00:18:39;;;;;;;4.22;2.13;;;;;;;22.19;56.60;93770.41;4968278;28;20031;-70
2022/09/18 00:21:09;;;;;;;3.28;1.75;;;;;;;22.32;55.47;93781.25;4995992;28;20033;-69
2022/09/18 00:23:35;;;;;;;2.95;1.20;;;;;;;22.29;55.01;93757.84;4959490;28;20572;-60
2022/09/18 00:26:01;;;;;;;4.28;1.50;;;;;;;22.46;53.30;93769.00;5001315;28;20038;-58
2022/09/18 00:28:26;;;;;;;2.58;1.10;;;;;;;22.66;52.59;93781.84;4981529;28;20030;-59
2022/09/18 00:30:52;;;;;;;1.85;0.93;;;;;;;22.69;52.73;93788.94;4988616;28;20064;-58
2022/09/18 00:33:18;;;;;;;2.20;0.90;;;;;;;21.94;52.11;93693.19;4991917;28;20467;-58
2022/09/18 00:35:44;;;;;;;2.75;0.70;;;;;;;22.35;51.62;93755.69;4987305;28;20118;-58
2022/09/18 00:38:10;;;;;;;2.00;0.75;;;;;;;22.14;51.25;93730.47;4994881;28;20161;-58
2022/09/18 00:40:35;;;;;;;1.48;0.70;;;;;;;22.37;50.64;93766.78;4982826;28;20138;-58
2022/09/18 00:43:25;;;;;;;2.70;0.70;;;;;;;22.33;49.84;93731.03;4981183;28;20069;-59
2022/09/18 00:46:00;;;;;;;2.10;0.60;;;;;;;22.56;49.67;93824.41;4995623;28;20041;-58
2022/09/18 00:48:39;;;;;;;1.20;0.60;;;;;;;21.86;50.85;93796.91;4985008;28;20498;-61
2022/09/18 00:51:04;;;;;;;2.70;0.43;;;;;;;21.86;51.87;93780.59;4997629;28;20029;-59
2022/09/18 00:53:30;;;;;;;1.48;0.57;;;;;;;22.07;51.84;93807.25;4974152;28;20030;-58
2022/09/18 00:55:56;;;;;;;4.00;0.82;;;;;;;22.23;51.78;93825.22;4985031;28;20053;-58
2022/09/18 00:58:22;;;;;;;1.27;0.70;;;;;;;22.47;51.73;93854.81;4955237;28;20049;-58
2022/09/18 01:00:47;;;;;;;1.63;0.80;;;;;;;22.29;51.53;93806.78;4999969;28;20047;-58
2022/09/18 01:03:12;;;;;;;1.33;0.60;;;;;;;22.72;51.76;93892.03;4997878;28;20475;-58
2022/09/18 01:06:14;;;;;;;2.30;0.82;;;;;;;22.89;52.27;93922.31;4991724;28;20054;-60
2022/09/18 01:08:53;;;;;;;1.23;0.70;;;;;;;22.15;52.52;93846.16;4947036;28;20125;-60
2022/09/18 01:11:35;;;;;;;1.88;0.75;;;;;;;22.92;52.40;93970.97;4962334;28;20039;-59
2022/09/18 01:14:10;;;;;;;1.52;0.80;;;;;;;22.94;52.76;94001.16;4981803;28;20046;-58
2022/09/18 01:16:54;;;;;;;1.73;0.80;;;;;;;22.96;53.34;93987.75;4988924;28;20181;-61
2022/09/18 01:19:23;;;;;;;2.30;0.90;;;;;;;22.99;53.05;94003.00;4977206;28;20169;-57
2022/09/18 01:22:04;;;;;;;1.25;0.88;;;;;;;22.98;53.47;94020.59;4987627;28;20042;-60
2022/09/18 01:24:41;;;;;;;1.55;0.82;;;;;;;22.98;53.88;94012.44;4979788;28;20022;-59
2022/09/18 01:27:11;;;;;;;1.60;0.90;;;;;;;22.92;54.00;94013.81;4985122;28;20022;-58
2022/09/18 01:30:00;;;;;;;1.33;0.80;;;;;;;22.72;53.83;94011.03;4953508;28;20423;-58
2022/09/18 01:32:38;;;;;;;1.77;1.02;;;;;;;23.07;53.96;94052.81;4993938;28;20042;-58
2022/09/18 01:35:18;;;;;;;1.52;0.98;;;;;;;23.01;54.40;94048.78;4984408;28;20042;-59
2022/09/18 01:37:47;;;;;;;1.95;1.10;;;;;;;23.07;54.33;94063.72;4955825;28;20416;-58
2022/09/18 01:40:37;;;;;;;2.17;0.90;;;;;;;22.61;54.22;93994.97;4981840;28;20139;-59
2022/09/18 01:43:04;;;;;;;;;;;;;;;23.12;54.24;94076.50;4956932;28;20041;-58
2022/09/18 01:45:32;;;;;;;2.03;0.70;;;;;;;22.61;54.26;94000.41;4984706;28;19917;-59
2022/09/18 01:48:02;;;;;;;1.47;0.90;;;;;;;22.98;54.56;94077.78;4968750;28;20548;-59
2022/09/18 01:50:29;;;;;;;1.75;0.90;;;;;;;22.72;54.21;94032.81;4967229;28;20131;-58
2022/09/18 01:53:29;;;;;;;1.52;1.00;;;;;;;22.73;55.06;94056.78;4983778;28;20053;-58
2022/09/18 01:56:00;;;;;;;1.67;0.90;;;;;;;22.69;54.52;94022.97;4987015;28;20044;-59
2022/09/18 01:58:26;;;;;;;1.48;1.00;;;;;;;22.88;54.45;94075.28;4988589;28;20037;-58
2022/09/18 02:00:57;;;;;;;1.35;0.77;;;;;;;22.66;54.70;94043.09;4977370;28;20129;-58
2022/09/18 02:03:23;;;;;;;1.75;1.10;;;;;;;23.16;55.20;94125.91;4972295;28;20097;-58
2022/09/18 02:05:52;;;;;;;1.30;0.90;;;;;;;22.75;54.87;94064.41;4994074;28;20117;-58
2022/09/18 02:08:24;;;;;;;2.00;1.00;;;;;;;22.48;54.64;94043.97;4949336;28;20043;-58
2022/09/18 02:10:55;;;;;;;2.25;0.90;;;;;;;22.69;54.54;94064.56;4977567;28;20121;-58
2022/09/18 02:13:25;;;;;;;2.25;0.85;;;;;;;23.29;54.88;94155.84;4964111;28;20137;-58
2022/09/18 02:15:51;;;;;;;2.00;1.00;;;;;;;23.25;54.99;94177.22;4988726;28;20048;-58
2022/09/18 02:18:23;;;;;;;1.20;0.80;;;;;;;23.07;55.20;94128.34;5001485;28;20029;-58
2022/09/18 02:20:49;;;;;;;1.48;0.80;;;;;;;22.75;55.20;94075.31;4980909;28;20018;-58
2022/09/18 02:23:14;;;;;;;1.33;0.80;;;;;;;23.24;55.34;94153.22;4983761;28;20537;-58
2022/09/18 02:25:42;;;;;;;1.77;1.05;;;;;;;23.31;55.02;94179.81;4974572;28;20414;-58
2022/09/18 02:28:08;;;;;;;1.10;0.70;;;;;;;23.32;54.96;94181.25;5001010;28;20091;-58
2022/09/18 02:30:36;;;;;;;1.38;0.70;;;;;;;23.37;54.63;94200.22;4960038;28;20054;-58
2022/09/18 02:33:02;;;;;;;2.50;0.95;;;;;;;23.38;55.05;94207.16;4976090;28;20027;-58
2022/09/18 02:35:35;;;;;;;1.40;0.90;;;;;;;23.38;55.01;94226.22;4988136;28;20093;-58
2022/09/18 02:38:21;;;;;;;2.47;0.70;;;;;;;23.29;55.16;94232.09;4976557;28;20050;-61
2022/09/18 02:40:56;;;;;;;1.70;1.00;;;;;;;23.41;54.78;94241.50;4971911;28;20031;-58
2022/09/18 02:43:43;;;;;;;1.58;0.80;;;;;;;23.37;55.48;94228.19;5001145;28;20045;-59
2022/09/18 02:46:11;;;;;;;1.98;0.90;;;;;;;23.43;55.40;94241.72;4996339;28;20078;-58
2022/09/18 02:48:43;;;;;;;2.17;1.00;;;;;;;23.33;55.26;94237.22;4990717;28;20053;-59
2022/09/18 02:51:39;;;;;;;1.73;0.90;;;;;;;23.37;55.12;94241.81;4970506;28;20588;-57
2022/09/18 02:54:29;;;;;;;1.20;0.70;;;;;;;23.22;55.17;94227.28;4980676;28;20049;-59
2022/09/18 02:56:57;;;;;;;1.02;0.65;;;;;;;23.46;55.28;94254.28;4984740;28;20042;-59
2022/09/18 02:59:32;;;;;;;1.25;0.60;;;;;;;23.43;55.16;94263.50;4992583;28;20042;-59
2022/09/18 03:01:57;;;;;;;1.65;0.70;;;;;;;23.25;55.13;94239.13;4987808;28;20069;-58
2022/09/18 03:04:25;;;;;;;1.30;0.68;;;;;;;22.89;55.22;94189.81;4975915;28;20566;-59
2022/09/18 03:06:50;;;;;;;1.10;0.50;;;;;;;23.46;55.16;94278.81;5000743;28;20396;-58
2022/09/18 03:09:16;;;;;;;1.60;0.73;;;;;;;23.03;55.35;94237.59;5005341;28;20037;-59
2022/09/18 03:11:41;;;;;;;1.60;0.75;;;;;;;23.04;54.91;94225.44;4989072;28;20398;-58
2022/09/18 03:14:07;;;;;;;1.10;0.70;;;;;;;23.10;54.89;94242.41;4991549;28;20036;-58
2022/09/18 03:16:32;;;;;;;1.02;0.70;;;;;;;23.51;55.46;94291.56;5004075;28;20542;-58
2022/09/18 03:18:58;;;;;;;2.28;0.65;;;;;;;23.47;55.29;94307.53;5002673;28;20045;-59
2022/09/18 03:21:24;;;;;;;1.60;0.55;;;;;;;23.48;55.18;94303.53;4994664;28;20538;-58
2022/09/18 03:23:50;;;;;;;1.08;0.60;;;;;;;23.12;55.44;94256.25;5001480;28;20070;-58
2022/09/18 03:26:16;;;;;;;0.82;0.52;;;;;;;22.85;55.32;94198.84;5004079;28;20069;-58
2022/09/18 03:28:43;;;;;;;1.23;0.70;;;;;;;23.47;55.35;94310.25;5004538;28;20414;-58
2022/09/18 03:31:09;;;;;;;1.00;0.50;;;;;;;23.19;55.07;94266.47;4986101;28;20101;-58
2022/09/18 03:33:34;;;;;;;0.85;0.60;;;;;;;22.83;55.29;94202.09;4984392;28;20034;-58
2022/09/18 03:36:00;;;;;;;1.23;0.57;;;;;;;23.45;55.40;94315.47;4988672;28;20033;-58
2022/09/18 03:38:25;;;;;;;1.10;0.70;;;;;;;23.15;55.04;94260.63;5003977;28;20041;-59
2022/09/18 03:40:51;;;;;;;1.35;0.70;;;;;;;23.53;55.23;94338.13;4997976;28;20034;-58
2022/09/18 03:43:16;;;;;;;1.27;0.70;;;;;;;23.22;55.22;94270.88;4992695;28;20109;-58
2022/09/18 03:45:42;;;;;;;1.42;0.60;;;;;;;23.25;55.12;94286.16;5004062;28;20117;-58
2022/09/18 03:48:07;;;;;;;1.08;0.60;;;;;;;23.48;55.53;94319.88;4992852;28;20556;-58
2022/09/18 03:50:33;;;;;;;1.00;0.70;;;;;;;23.36;55.43;94294.13;5000352;28;20092;-58
2022/09/18 03:52:58;;;;;;;1.42;0.65;;;;;;;23.18;54.92;94278.63;4988105;28;20022;-58
2022/09/18 03:55:24;;;;;;;0.90;0.60;;;;;;;23.57;55.39;94333.06;5004162;28;20042;-58
2022/09/18 03:57:49;;;;;;;1.33;0.75;;;;;;;22.80;55.15;94279.34;4991225;28;20066;-58
2022/09/18 04:00:15;;;;;;;1.10;0.57;;;;;;;23.37;55.10;94336.47;4989523;28;20108;-58
2022/09/18 04:02:41;;;;;;;1.35;0.70;;;;;;;23.06;55.11;94295.72;4976667;28;20152;-58
2022/09/18 04:05:07;;;;;;;1.20;0.60;;;;;;;23.21;55.01;94315.72;4999108;28;20448;-58
2022/09/18 04:07:32;;;;;;;1.10;0.60;;;;;;;23.33;55.18;94335.31;4996447;28;20384;-58
2022/09/18 04:09:58;;;;;;;0.82;0.63;;;;;;;23.53;55.20;94359.94;4998333;28;20515;-59
2022/09/18 04:12:23;;;;;;;1.17;0.60;;;;;;;23.20;55.43;94316.97;4991257;28;20032;-57
2022/09/18 04:14:49;;;;;;;0.85;0.40;;;;;;;23.53;55.09;94370.84;5000519;28;20080;-58
2022/09/18 04:17:15;;;;;;;1.17;0.60;;;;;;;23.15;55.05;94326.00;5001181;28;20514;-58
2022/09/18 04:19:40;;;;;;;1.23;0.60;;;;;;;23.11;55.19;94314.69;5003807;28;20038;-59
2022/09/18 04:22:06;;;;;;;0.80;0.50;;;;;;;23.42;55.15;94387.38;4986930;28;20475;-59
2022/09/18 04:24:31;;;;;;;1.40;0.65;;;;;;;23.37;55.58;94371.88;4992449;28;20517;-58
2022/09/18 04:26:57;;;;;;;0.85;0.60;;;;;;;23.52;55.16;94391.16;5001046;28;20213;-59
2022/09/18 04:29:23;;;;;;;1.13;0.65;;;;;;;23.45;55.36;94380.88;5002963;28;20046;-59
2022/09/18 04:31:48;;;;;;;1.23;0.63;;;;;;;22.96;55.47;94314.47;4994848;28;20542;-58
2022/09/18 04:34:14;;;;;;;0.60;0.40;;;;;;;22.88;54.87;94309.41;5003453;28;20045;-59
2022/09/18 04:36:40;;;;;;;0.93;0.60;;;;;;;23.52;55.22;94402.06;5002702;28;20042;-58
2022/09/18 04:39:05;;;;;;;1.15;0.68;;;;;;;23.00;55.35;94331.22;4993981;28;20045;-59
2022/09/18 04:41:31;;;;;;;1.10;0.50;;;;;;;23.21;55.45;94367.47;4962034;28;20411;-58
2022/09/18 04:43:56;;;;;;;1.10;0.60;;;;;;;23.35;55.01;94393.47;4997664;28;20026;-59
2022/09/18 04:46:22;;;;;;;1.00;0.68;;;;;;;23.45;55.48;94414.34;4990477;28;20045;-58
2022/09/18 04:48:48;;;;;;;0.65;0.47;;;;;;;23.47;55.24;94422.72;5003245;28;20161;-59
2022/09/18 04:51:14;;;;;;;1.00;0.60;;;;;;;23.42;55.38;94409.19;4977475;28;20530;-59
2022/09/18 04:53:39;;;;;;;0.65;0.50;;;;;;;22.68;54.88;94323.63;4983319;28;20031;-58
2022/09/18 04:56:05;;;;;;;0.90;0.40;;;;;;;23.36;55.22;94421.44;4998823;28;20037;-58
2022/09/18 04:58:31;;;;;;;1.25;0.60;;;;;;;23.13;55.45;94404.75;4971301;28;20407;-58
2022/09/18 05:00:56;;;;;;;1.17;0.57;;;;;;;23.21;55.18;94402.88;4990984;28;20038;-58
2022/09/18 05:03:22;;;;;;;0.93;0.60;;;;;;;23.15;55.21;94405.00;4985147;28;20044;-58
2022/09/18 05:05:48;;;;;;;1.25;0.63;;;;;;;22.81;55.16;94356.28;5002278;28;20054;-59
2022/09/18 05:08:14;;;;;;;0.90;0.60;;;;;;;23.47;51.71;94438.34;4988622;28;20201;-59
2022/09/18 05:10:40;;;;;;;0.60;0.40;;;;;;;23.55;50.76;94480.06;4982698;28;20034;-59
2022/09/18 05:13:06;;;;;;;0.60;0.50;;;;;;;23.45;50.24;94473.53;4963673;28;20277;-59
2022/09/18 05:15:32;;;;;;;1.48;0.50;;;;;;;23.12;49.42;94430.53;4978506;28;20725;-59
2022/09/18 05:18:00;;;;;;;0.88;0.50;;;;;;;23.00;49.21;94450.28;4982377;28;20034;-58
2022/09/18 05:20:27;;;;;;;0.93;0.60;;;;;;;23.29;48.96;94493.66;4980175;28;20034;-58
2022/09/18 05:22:52;;;;;;;0.55;0.40;;;;;;;23.37;48.37;94505.38;4979399;28;20101;-58
2022/09/18 05:25:19;;;;;;;0.70;0.40;;;;;;;23.02;47.84;94464.88;4980985;28;20042;-58
2022/09/18 05:28:05;;;;;;;1.10;0.60;;;;;;;23.25;47.80;94509.56;4980391;28;20031;-58
2022/09/18 05:30:30;;;;;;;0.80;0.50;;;;;;;22.64;47.21;94402.09;4979445;28;20526;-57
2022/09/18 05:33:00;;;;;;;0.63;0.50;;;;;;;23.26;47.39;94489.25;4981331;28;20030;-58
2022/09/18 05:35:27;;;;;;;0.90;0.60;;;;;;;23.06;47.46;94487.09;4980578;28;20042;-58
2022/09/18 05:37:53;;;;;;;0.80;0.50;;;;;;;23.17;47.06;94513.41;4982513;28;20046;-58
2022/09/18 05:40:19;;;;;;;1.45;0.60;;;;;;;22.53;46.35;94451.25;4980981;28;20053;-58
2022/09/18 05:42:45;;;;;;;1.02;0.50;;;;;;;23.02;46.33;94513.88;4980929;28;20125;-58
2022/09/18 05:45:12;;;;;;;0.80;0.50;;;;;;;23.09;46.10;94535.09;4964555;28;20537;-58
2022/09/18 05:47:38;;;;;;;1.55;0.60;;;;;;;23.05;45.77;94534.63;4980673;28;20102;-59
2022/09/18 05:50:03;;;;;;;0.70;0.50;;;;;;;22.94;46.12;94523.16;4980981;28;20093;-59
2022/09/18 05:52:29;;;;;;;1.15;0.57;;;;;;;22.69;45.77;94523.75;4981630;28;20038;-59
2022/09/18 05:54:54;;;;;;;0.70;0.50;;;;;;;22.70;45.64;94519.78;4981116;28;20077;-57
2022/09/18 05:57:20;;;;;;;1.30;0.70;;;;;;;22.90;45.41;94522.72;4981085;28;20036;-58
2022/09/18 05:59:45;;;;;;;0.90;0.70;;;;;;;22.44;45.04;94471.41;4981883;28;20030;-58
2022/09/18 06:02:10;;;;;;;0.60;0.50;;;;;;;22.18;45.28;94421.56;4977629;28;20518;-57
2022/09/18 06:04:36;;;;;;;1.40;0.77;;;;;;;22.70;45.49;94530.69;4979473;28;20038;-58
2022/09/18 06:07:01;;;;;;;0.77;0.55;;;;;;;22.05;45.32;94473.16;4980988;28;20036;-58
2022/09/18 06:09:27;;;;;;;1.05;0.68;;;;;;;22.65;45.04;94528.78;4980858;28;20093;-58
2022/09/18 06:11:52;;;;;;;1.00;0.82;;;;;;;22.87;44.46;94539.34;4978684;28;20042;-59
2022/09/18 06:14:18;;;;;;;1.20;0.60;;;;;;;22.63;44.83;94536.69;4980359;28;20069;-59
2022/09/18 06:16:43;;;;;;;1.38;0.70;;;;;;;22.37;44.25;94498.47;4980528;28;20034;-59
2022/09/18 06:19:09;;;;;;;1.27;0.60;;;;;;;22.60;44.42;94537.72;4981435;28;20031;-60
2022/09/18 06:21:34;;;;;;;1.15;0.70;;;;;;;22.58;44.46;94542.97;4981300;28;20026;-59
2022/09/18 06:24:00;;;;;;;0.80;0.60;;;;;;;22.10;44.25;94493.38;4963364;28;20034;-59
2022/09/18 06:26:25;;;;;;;1.10;0.60;;;;;;;22.34;44.43;94515.81;4980922;28;20034;-60
2022/09/18 06:28:51;;;;;;;1.42;0.73;;;;;;;22.78;43.98;94575.09;4981046;28;20096;-58
2022/09/18 06:31:16;;;;;;;1.10;0.60;;;;;;;22.72;44.21;94585.31;4979074;28;20038;-59
2022/09/18 06:33:42;;;;;;;1.20;0.60;;;;;;;22.19;43.86;94520.94;4981222;28;20057;-59
2022/09/18 06:36:12;;;;;;;1.40;0.65;;;;;;;22.29;44.09;94519.34;4980372;28;20097;-59
2022/09/18 06:38:38;;;;;;;1.10;0.68;;;;;;;22.34;43.50;94537.59;4981849;28;21119;-59
2022/09/18 06:41:03;;;;;;;1.60;0.70;;;;;;;22.29;43.66;94530.25;4985011;28;20597;-59
2022/09/18 06:43:29;;;;;;;1.17;0.50;;;;;;;22.31;43.95;94554.94;4986695;28;20026;-59
2022/09/18 06:45:55;;;;;;;1.60;0.63;;;;;;;22.63;43.92;94593.84;4986386;28;20057;-60
2022/09/18 06:48:23;;;;;;;1.42;0.60;;;;;;;22.58;43.54;94594.66;4986211;28;20038;-60
2022/09/18 06:50:58;;;;;;;1.95;0.40;;;;;;;22.61;43.74;94593.66;4986477;28;20015;-60
2022/09/18 06:53:25;;;;;;;0.98;0.50;;;;;;;22.19;43.12;94612.66;4987375;28;20427;-60
2022/09/18 06:55:50;;;;;;;1.00;0.50;;;;;;;21.75;42.73;94564.19;4998021;28;20141;-61
2022/09/18 06:58:16;;;;;;;1.00;0.60;;;;;;;21.98;42.56;94604.22;4986793;28;20046;-60
2022/09/18 07:00:42;;;;;;;3.05;0.73;;;;;;;21.47;42.07;94554.81;5000360;28;20117;-59
2022/09/18 07:03:08;;;;;;;1.38;0.77;;;;;;;21.58;42.33;94543.84;4988439;28;20049;-59
2022/09/18 07:05:33;;;;;;;0.80;0.50;;;;;;;21.29;41.25;94533.72;4984902;28;20038;-58
2022/09/18 07:07:59;;;;;;;2.42;0.40;;;;;;;21.74;41.60;94630.66;4970055;28;20046;-58
2022/09/18 07:10:24;;;;;;;1.92;0.50;;;;;;;21.17;43.20;94559.47;4990457;28;20288;-58
2022/09/18 07:12:57;;;;;;;0.98;0.57;;;;;;;21.73;43.84;94571.38;4986477;28;20046;-59
2022/09/18 07:15:22;;;;;;;2.17;0.50;;;;;;;21.80;44.30;94565.38;4993758;28;20072;-59
2022/09/18 07:17:48;;;;;;;1.40;0.50;;;;;;;22.30;44.08;94629.66;5006936;28;20498;-59
2022/09/18 07:20:13;;;;;;;0.88;0.45;;;;;;;21.96;44.81;94587.69;4997396;28;20042;-59
2022/09/18 07:22:39;;;;;;;0.85;0.45;;;;;;;21.64;45.02;94520.06;4984259;28;20089;-59
2022/09/18 07:25:05;;;;;;;1.38;0.60;;;;;;;22.23;45.41;94592.13;4984692;28;20042;-60
2022/09/18 07:27:30;;;;;;;0.82;0.50;;;;;;;22.40;45.80;94595.38;4983932;28;20030;-60
2022/09/18 07:29:57;;;;;;;0.88;0.45;;;;;;;22.10;45.58;94555.91;4987475;28;20388;-59
2022/09/18 07:32:23;;;;;;;1.75;0.68;;;;;;;22.76;46.66;94618.44;4985979;28;20117;-58
2022/09/18 07:34:48;;;;;;;0.77;0.50;;;;;;;22.82;46.85;94616.38;4986813;28;20031;-59
2022/09/18 07:37:15;;;;;;;0.70;0.50;;;;;;;22.75;45.84;94600.63;4986346;28;20529;-59
2022/09/18 07:39:42;;;;;;;2.92;0.75;;;;;;;22.66;45.74;94579.22;4988632;28;20057;-59
2022/09/18 07:42:07;;;;;;;0.90;0.50;;;;;;;22.72;45.53;94590.78;4985645;28;20058;-59
2022/09/18 07:44:33;;;;;;;1.30;0.68;;;;;;;22.89;46.16;94606.38;4989604;28;20049;-59
2022/09/18 07:46:59;;;;;;;2.35;0.50;;;;;;;23.05;45.19;94594.56;4985121;28;20030;-60
2022/09/18 07:49:24;;;;;;;1.10;0.60;;;;;;;23.41;44.60;94628.44;4986318;28;20120;-60
2022/09/18 07:51:50;;;;;;;1.00;0.68;;;;;;;23.71;44.91;94648.09;4982284;28;20089;-59
2022/09/18 07:54:16;;;;;;;0.95;0.43;;;;;;;23.69;44.32;94628.78;4991979;28;20529;-60
2022/09/18 07:56:41;;;;;;;1.35;0.60;;;;;;;23.98;43.88;94645.63;5001088;28;20137;-60
2022/09/18 07:59:07;;;;;;;2.72;0.70;;;;;;;23.59;43.88;94570.44;4985569;28;20050;-60
2022/09/18 08:01:33;;;;;;;1.63;0.50;;;;;;;24.16;43.63;94655.00;4982146;28;20547;-59
2022/09/18 08:04:00;;;;;;;0.98;0.70;;;;;;;24.27;43.06;94660.97;4983555;28;20030;-60
2022/09/18 08:06:25;;;;;;;1.40;0.70;;;;;;;24.14;43.28;94636.44;4983461;28;20037;-60
2022/09/18 08:08:51;;;;;;;1.65;0.60;;;;;;;24.07;43.13;94612.47;4982714;28;20046;-59
2022/09/18 08:11:16;;;;;;;0.73;0.43;;;;;;;24.02;42.23;94569.69;4983164;28;20026;-60
2022/09/18 08:13:42;;;;;;;0.70;0.45;;;;;;;23.82;42.08;94549.72;4966353;28;20034;-60
2022/09/18 08:16:08;;;;;;;0.90;0.50;;;;;;;24.35;41.27;94574.53;4983061;28;20079;-60
2022/09/18 08:18:35;;;;;;;1.33;0.70;;;;;;;24.39;41.16;94586.63;4984039;28;20022;-60
2022/09/18 08:21:00;;;;;;;0.98;0.50;;;;;;;24.18;41.60;94544.06;4983430;28;20474;-60
2022/09/18 08:23:26;;;;;;;0.80;0.43;;;;;;;25.02;41.02;94641.69;4983866;28;20083;-59
2022/09/18 08:25:51;;;;;;;1.25;0.45;;;;;;;24.70;41.06;94585.00;4983201;28;20042;-59
2022/09/18 08:28:17;;;;;;;0.80;0.50;;;;;;;24.90;40.84;94601.44;4966848;28;20121;-60
2022/09/18 08:30:42;;;;;;;0.80;0.60;;;;;;;24.75;41.01;94608.72;4991000;28;20026;-58
2022/09/18 08:33:09;;;;;;;1.10;0.60;;;;;;;24.92;40.73;94593.47;5003234;28;20495;-58
2022/09/18 08:35:35;;;;;;;1.33;0.63;;;;;;;24.85;40.08;94583.16;4969805;28;20121;-58
2022/09/18 08:38:00;;;;;;;1.23;0.63;;;;;;;25.58;39.27;94658.34;4984405;28;20486;-59
2022/09/18 08:40:55;;;;;;;1.15;0.52;;;;;;;25.64;39.28;94650.75;4972336;28;20039;-59
2022/09/18 08:43:26;;;;;;;1.00;0.60;;;;;;;25.73;38.81;94653.03;4956815;28;20057;-59
2022/09/18 08:46:10;;;;;;;1.17;0.55;;;;;;;25.53;39.73;94640.03;4985786;28;20022;-59
2022/09/18 08:49:14;;;;;;;0.85;0.70;;;;;;;25.75;38.78;94653.22;4977264;28;20045;-59
2022/09/18 08:51:48;;;;;;;1.00;0.50;;;;;;;25.72;38.66;94618.75;4956737;28;20478;-59
2022/09/18 08:54:23;;;;;;;1.67;0.50;;;;;;;25.96;39.00;94639.03;4996851;28;20087;-59
2022/09/18 08:56:49;;;;;;;1.00;0.60;;;;;;;25.98;38.56;94658.38;4998362;28;20052;-59
2022/09/18 08:59:38;;;;;;;1.40;0.70;;;;;;;25.90;39.19;94679.47;4969053;28;20046;-59
2022/09/18 09:02:35;;;;;;;1.63;0.68;;;;;;;25.72;39.12;94673.44;4969838;28;20190;-61
2022/09/18 09:05:02;;;;;;;1.23;0.47;;;;;;;25.65;39.47;94668.63;4986357;28;20039;-61
2022/09/18 09:08:02;;;;;;;2.33;0.68;;;;;;;25.61;38.94;94668.22;4974918;28;20045;-60
2022/09/18 09:10:41;;;;;;;2.38;0.73;;;;;;;25.66;39.34;94681.78;4964608;28;20069;-60
2022/09/18 09:13:27;;;;;;;1.70;0.70;;;;;;;25.62;39.41;94681.34;4999598;28;20129;-60
2022/09/18 09:15:58;;;;;;;2.38;0.60;;;;;;;25.05;39.51;94623.50;5000076;28;20112;-60
2022/09/18 09:18:36;;;;;;;1.70;0.50;;;;;;;25.49;39.24;94716.94;4974125;28;20038;-60
2022/09/18 09:21:21;;;;;;;2.60;0.60;;;;;;;25.37;39.92;94690.38;4981720;28;20502;-60
2022/09/18 09:24:20;;;;;;;0.82;0.40;;;;;;;25.27;39.55;94705.75;5001004;28;20068;-60
2022/09/18 09:26:47;;;;;;;2.30;0.50;;;;;;;25.09;39.66;94676.53;4933974;28;20049;-60
2022/09/18 09:29:20;;;;;;;0.88;0.47;;;;;;;25.21;40.05;94718.78;4974523;28;20078;-60
2022/09/18 09:31:50;;;;;;;1.20;0.52;;;;;;;24.96;40.04;94692.94;4966065;28;20045;-61
2022/09/18 09:34:21;;;;;;;1.98;0.60;;;;;;;24.71;39.94;94671.09;4968736;28;20109;-60
2022/09/18 09:36:47;;;;;;;1.95;0.50;;;;;;;24.92;39.94;94722.56;4983671;28;20018;-60
2022/09/18 09:39:38;;;;;;;2.22;0.60;;;;;;;24.60;40.11;94680.25;4960712;28;20198;-60
2022/09/18 09:42:25;;;;;;;1.67;0.70;;;;;;;24.38;40.12;94671.75;4963304;28;20038;-60
2022/09/18 09:44:57;;;;;;;1.50;0.57;;;;;;;24.83;39.82;94750.31;4984463;28;20116;-60
2022/09/18 09:47:31;;;;;;;1.45;0.80;;;;;;;24.65;40.32;94752.38;5001830;28;20045;-60
2022/09/18 09:50:11;;;;;;;1.02;0.60;;;;;;;24.66;40.02;94753.88;5000583;28;20072;-60
2022/09/18 09:52:38;;;;;;;1.77;0.70;;;;;;;24.24;39.93;94686.59;4994098;28;20038;-60
2022/09/18 09:55:06;;;;;;;1.63;0.80;;;;;;;24.55;39.73;94752.06;4960016;28;20085;-58
2022/09/18 09:57:44;;;;;;;0.95;0.60;;;;;;;24.51;39.16;94750.91;4976455;28;20049;-60
2022/09/18 10:00:13;;;;;;;1.35;0.80;;;;;;;24.40;39.80;94745.66;4981166;28;20038;-60
2022/09/18 10:03:15;;;;;;;1.50;0.60;;;;;;;24.39;39.91;94766.00;4964406;28;20105;-60
2022/09/18 10:05:51;;;;;;;2.03;0.80;;;;;;;24.33;39.68;94746.25;4955832;28;20051;-60
2022/09/18 10:08:32;;;;;;;2.45;0.77;;;;;;;24.36;40.40;94751.41;4981319;28;20081;-60
2022/09/18 10:10:58;;;;;;;1.25;0.80;;;;;;;23.78;40.12;94680.19;4990501;28;20026;-60
2022/09/18 10:14:01;;;;;;;1.30;1.00;;;;;;;24.32;40.66;94757.66;4974031;28;20042;-60
2022/09/18 10:16:36;;;;;;;1.25;1.00;;;;;;;24.41;40.54;94764.22;4943348;28;20220;-59
2022/09/18 10:19:02;;;;;;;1.65;0.77;;;;;;;24.42;40.25;94768.44;4932649;29;20519;-60
2022/09/18 10:21:30;;;;;;;1.45;1.17;;;;;;;24.16;40.50;94721.22;4946068;28;20038;-60
2022/09/18 10:24:03;;;;;;;1.13;1.00;;;;;;;24.41;40.80;94763.50;4964945;28;20026;-60
2022/09/18 10:27:02;;;;;;;1.42;0.90;;;;;;;23.90;40.56;94699.31;4949003;28;20046;-60
2022/09/18 10:29:30;;;;;;;3.05;1.45;;;;;;;23.99;40.36;94709.84;4952576;28;20710;-60
2022/09/18 10:31:57;;;;;;;1.73;1.40;;;;;;;23.95;40.46;94728.50;4980367;28;20133;-58
2022/09/18 10:34:32;;;;;;;1.70;1.10;;;;;;;24.22;40.66;94773.69;4964924;28;20045;-58
2022/09/18 10:36:57;;;;;;;1.65;1.17;;;;;;;24.29;40.62;94781.28;4981840;28;20021;-59
2022/09/18 10:39:31;;;;;;;1.63;1.40;;;;;;;23.74;40.28;94717.94;4980497;28;20121;-58
2022/09/18 10:42:01;;;;;;;2.85;1.75;;;;;;;24.12;41.26;94760.97;4935035;28;20050;-61
2022/09/18 10:44:30;;;;;;;2.22;1.58;;;;;;;23.77;40.58;94725.06;4978854;28;20477;-58
2022/09/18 10:47:08;;;;;;;2.17;1.63;;;;;;;23.58;40.47;94702.53;4963802;28;20121;-59
2022/09/18 10:49:39;;;;;;;2.08;1.88;;;;;;;23.99;40.88;94783.47;4964661;28;20061;-59
2022/09/18 10:52:26;;;;;;;1.88;1.50;;;;;;;24.02;40.84;94776.25;4980958;28;20042;-59
2022/09/18 10:55:08;;;;;;;2.08;1.88;;;;;;;23.50;40.43;94720.72;4981555;28;20518;-59
2022/09/18 10:57:37;;;;;;;2.50;2.10;;;;;;;23.27;40.28;94659.59;4948250;28;20034;-59
2022/09/18 11:00:26;;;;;;;2.08;1.90;;;;;;;24.03;40.97;94789.34;4981550;28;20590;-59
2022/09/18 11:03:13;;;;;;;2.63;2.38;;;;;;;23.67;41.10;94745.78;4951103;28;20049;-59
2022/09/18 11:05:59;;;;;;;2.40;2.08;;;;;;;23.69;40.75;94749.47;4965349;28;20426;-59
2022/09/18 11:08:27;;;;;;;3.55;2.50;;;;;;;24.00;40.56;94801.31;4972551;28;20049;-59
2022/09/18 11:10:59;;;;;;;2.92;2.38;;;;;;;23.70;40.32;94748.22;4962039;28;20035;-58
2022/09/18 11:13:25;;;;;;;2.38;2.10;;;;;;;24.05;40.18;94792.31;4958285;28;20034;-59
2022/09/18 11:15:57;;;;;;;2.33;2.13;;;;;;;23.62;40.72;94738.41;4963328;28;20667;-60
2022/09/18 11:18:26;;;;;;;2.80;2.50;;;;;;;23.94;40.54;94795.19;4968705;28;20128;-59
2022/09/18 11:20:53;;;;;;;3.88;2.47;;;;;;;23.82;40.33;94762.44;4956734;28;20553;-60
2022/09/18 11:23:18;;;;;;;3.40;2.70;;;;;;;24.05;40.95;94808.69;4983289;28;20050;-60
2022/09/18 11:25:46;;;;;;;3.15;2.70;;;;;;;23.95;40.28;94785.03;4996540;28;20601;-58
2022/09/18 11:28:25;;;;;;;2.80;2.50;;;;;;;23.34;39.87;94702.59;4984294;28;20050;-59
2022/09/18 11:31:02;;;;;;;2.95;2.63;;;;;;;24.01;40.40;94813.69;4994892;28;20052;-58
2022/09/18 11:33:32;;;;;;;2.40;2.20;;;;;;;23.66;40.69;94771.56;4977512;28;20104;-58
2022/09/18 11:36:03;;;;;;;2.90;2.67;;;;;;;23.55;40.33;94749.88;4953283;28;20806;-58
2022/09/18 11:38:29;;;;;;;3.08;2.78;;;;;;;23.87;40.23;94798.53;4977235;28;20061;-59
2022/09/18 11:40:56;;;;;;;2.63;2.42;;;;;;;23.58;40.33;94755.03;4967329;28;20450;-59
2022/09/18 11:43:27;;;;;;;2.90;2.60;;;;;;;23.36;40.17;94721.91;4966949;28;20049;-59
2022/09/18 11:46:14;;;;;;;2.60;2.40;;;;;;;23.94;40.18;94808.84;4972685;28;20030;-59
2022/09/18 11:48:43;;;;;;;2.53;2.33;;;;;;;23.88;40.06;94804.72;4996152;28;20165;-58